createdAt,value
2024-01-27T00:00:56.433Z,15.44
2024-01-27T00:03:24.901Z,15.44
2024-01-27T00:05:52.027Z,15.36
2024-01-27T00:08:19.215Z,15.38
2024-01-27T00:10:46.180Z,15.36
2024-01-27T00:13:13.138Z,15.34
2024-01-27T00:15:40.392Z,15.32
2024-01-27T00:18:07.550Z,15.31
2024-01-27T00:20:35.888Z,15.30
2024-01-27T00:23:02.969Z,15.28
2024-01-27T00:25:30.121Z,15.23
2024-01-27T00:27:57.158Z,15.24
2024-01-27T00:30:24.282Z,15.32
2024-01-27T00:32:51.366Z,15.32
2024-01-27T00:35:18.494Z,15.26
2024-01-27T00:37:46.849Z,15.28
2024-01-27T00:40:13.904Z,15.17
2024-01-27T00:42:42.197Z,15.10
2024-01-27T00:45:09.967Z,14.98
2024-01-27T00:47:37.058Z,15.05
2024-01-27T00:50:04.373Z,15.04
2024-01-27T00:52:31.386Z,14.98
2024-01-27T00:54:59.889Z,14.86
2024-01-27T00:57:27.005Z,14.92
2024-01-27T00:59:54.050Z,14.91
2024-01-27T01:02:21.230Z,15.02
2024-01-27T01:04:48.283Z,15.09
2024-01-27T01:07:15.252Z,15.05
2024-01-27T01:09:42.153Z,15.05
2024-01-27T01:12:10.683Z,15.04
2024-01-27T01:14:37.760Z,15.05
2024-01-27T01:17:04.872Z,15.14
2024-01-27T01:19:32.109Z,14.98
2024-01-27T01:21:59.171Z,14.84
2024-01-27T01:24:26.291Z,14.80
2024-01-27T01:26:53.420Z,14.77
2024-01-27T01:29:21.885Z,14.77
2024-01-27T01:31:49.209Z,14.75
2024-01-27T01:34:16.754Z,14.65
2024-01-27T01:36:43.916Z,14.71
2024-01-27T01:39:12.493Z,14.67
2024-01-27T01:41:39.568Z,14.71
2024-01-27T01:44:07.559Z,14.76
2024-01-27T01:46:36.168Z,14.81
2024-01-27T01:49:04.146Z,14.87
2024-01-27T01:51:31.612Z,14.94
2024-01-27T01:54:00.498Z,14.92
2024-01-27T01:56:27.897Z,14.81
2024-01-27T01:58:56.195Z,14.72
2024-01-27T02:01:23.503Z,14.65
2024-01-27T02:03:56.034Z,14.58
2024-01-27T02:06:23.025Z,15.01
2024-01-27T02:08:50.167Z,16.36
2024-01-27T02:11:17.112Z,16.94
2024-01-27T02:13:45.288Z,16.69
2024-01-27T02:16:12.480Z,16.32
2024-01-27T02:18:39.629Z,15.99
2024-01-27T02:21:08.381Z,15.73
2024-01-27T02:23:35.527Z,15.45
2024-01-27T02:26:04.189Z,15.32
2024-01-27T02:28:31.131Z,15.22
2024-01-27T02:30:58.121Z,15.13
2024-01-27T02:33:25.226Z,15.02
2024-01-27T02:35:52.314Z,14.89
2024-01-27T02:38:19.294Z,14.79
2024-01-27T02:40:46.361Z,14.81
2024-01-27T02:43:14.891Z,14.69
2024-01-27T02:45:42.039Z,14.50
2024-01-27T02:48:09.058Z,14.40
2024-01-27T02:50:36.083Z,14.39
2024-01-27T02:53:03.081Z,14.36
2024-01-27T02:55:30.251Z,14.40
2024-01-27T02:57:57.163Z,14.37
2024-01-27T03:00:25.497Z,14.27
2024-01-27T03:02:52.528Z,14.25
2024-01-27T03:05:19.521Z,14.23
2024-01-27T03:07:46.589Z,14.34
2024-01-27T03:10:13.620Z,14.52
2024-01-27T03:12:40.893Z,14.62
2024-01-27T03:15:10.078Z,14.73
2024-01-27T03:17:38.631Z,14.75
2024-01-27T03:20:07.077Z,14.83
2024-01-27T03:22:34.023Z,14.78
2024-01-27T03:25:01.080Z,14.82
2024-01-27T03:27:28.227Z,14.87
2024-01-27T03:29:57.500Z,14.79
2024-01-27T03:32:24.441Z,14.71
2024-01-27T03:34:52.833Z,14.59
2024-01-27T03:37:22.437Z,14.60
2024-01-27T03:39:49.404Z,14.77
2024-01-27T03:42:16.570Z,14.87
2024-01-27T03:44:43.718Z,14.90
2024-01-27T03:47:10.860Z,14.88
2024-01-27T03:49:38.401Z,14.90
2024-01-27T03:52:07.210Z,14.93
2024-01-27T03:54:34.220Z,14.90
2024-01-27T03:57:01.384Z,14.88
2024-01-27T03:59:28.285Z,14.86
2024-01-27T04:01:55.245Z,14.82
2024-01-27T04:04:22.798Z,14.77
2024-01-27T04:06:49.854Z,14.79
2024-01-27T04:09:18.180Z,14.86
2024-01-27T04:11:45.254Z,14.84
2024-01-27T04:14:12.130Z,14.77
2024-01-27T04:16:39.029Z,14.77
2024-01-27T04:19:06.104Z,14.77
2024-01-27T04:21:33.301Z,14.69
2024-01-27T04:24:00.347Z,14.56
2024-01-27T04:26:28.943Z,14.54
2024-01-27T04:28:55.893Z,14.59
2024-01-27T04:31:22.797Z,14.61
2024-01-27T04:33:49.841Z,14.57
2024-01-27T04:36:26.586Z,14.60
2024-01-27T04:38:53.580Z,14.56
2024-01-27T04:41:20.594Z,14.52
2024-01-27T04:43:48.951Z,14.48
2024-01-27T04:46:15.835Z,14.42
2024-01-27T04:48:43.349Z,14.33
2024-01-27T04:51:10.409Z,14.35
2024-01-27T04:53:37.351Z,14.40
2024-01-27T04:56:04.692Z,14.37
2024-01-27T04:58:31.666Z,14.48
2024-01-27T05:00:59.966Z,14.47
2024-01-27T05:03:26.961Z,14.43
2024-01-27T05:05:54.194Z,14.36
2024-01-27T05:08:21.281Z,14.36
2024-01-27T05:10:48.249Z,14.33
2024-01-27T05:13:15.261Z,14.31
2024-01-27T05:15:42.260Z,14.25
2024-01-27T05:18:10.851Z,14.10
2024-01-27T05:20:37.915Z,14.17
2024-01-27T05:23:05.275Z,14.18
2024-01-27T05:25:32.285Z,14.23
2024-01-27T05:27:59.333Z,14.19
2024-01-27T05:30:26.424Z,14.10
2024-01-27T05:32:53.681Z,14.02
2024-01-27T05:35:22.116Z,13.94
2024-01-27T05:37:49.096Z,13.92
2024-01-27T05:40:16.402Z,13.95
2024-01-27T05:42:43.493Z,13.94
2024-01-27T05:45:10.875Z,13.97
2024-01-27T05:47:38.084Z,13.90
2024-01-27T05:50:05.795Z,13.91
2024-01-27T05:52:34.119Z,13.88
2024-01-27T05:55:01.071Z,13.79
2024-01-27T05:57:28.034Z,13.74
2024-01-27T05:59:54.978Z,13.72
2024-01-27T06:02:21.941Z,13.70
2024-01-27T06:04:48.938Z,13.62
2024-01-27T06:07:16.050Z,13.58
2024-01-27T06:09:44.504Z,13.55
2024-01-27T06:12:11.446Z,13.53
2024-01-27T06:14:38.508Z,13.57
2024-01-27T06:17:06.128Z,13.55
2024-01-27T06:19:33.213Z,13.46
2024-01-27T06:22:02.295Z,13.41
2024-01-27T06:24:30.473Z,13.37
2024-01-27T06:26:58.985Z,13.47
2024-01-27T06:29:26.888Z,13.44
2024-01-27T06:31:53.866Z,13.43
2024-01-27T06:34:20.940Z,13.51
2024-01-27T06:36:47.889Z,13.49
2024-01-27T06:39:14.837Z,13.48
2024-01-27T06:41:41.819Z,13.48
2024-01-27T06:44:10.150Z,13.58
2024-01-27T06:46:37.110Z,13.54
2024-01-27T06:49:04.424Z,13.51
2024-01-27T06:51:31.516Z,13.51
2024-01-27T06:53:58.667Z,13.50
2024-01-27T06:56:25.561Z,13.52
2024-01-27T06:58:52.504Z,13.51
2024-01-27T07:01:20.884Z,13.54
2024-01-27T07:03:47.916Z,13.59
2024-01-27T07:06:14.960Z,13.61
2024-01-27T07:08:41.931Z,13.61
2024-01-27T07:11:08.908Z,13.70
2024-01-27T07:13:35.783Z,13.74
2024-01-27T07:16:02.760Z,13.86
2024-01-27T07:18:31.334Z,13.92
2024-01-27T07:20:58.356Z,13.91
2024-01-27T07:23:25.305Z,13.99
2024-01-27T07:25:52.226Z,14.04
2024-01-27T07:28:19.189Z,14.09
2024-01-27T07:30:46.278Z,14.06
2024-01-27T07:33:13.337Z,14.05
2024-01-27T07:35:41.885Z,14.13
2024-01-27T07:38:08.929Z,14.16
2024-01-27T07:40:36.026Z,14.11
2024-01-27T07:43:02.943Z,14.10
2024-01-27T07:45:29.929Z,14.07
2024-01-27T07:47:58.880Z,14.08
2024-01-27T07:50:27.403Z,14.13
2024-01-27T07:52:55.765Z,14.16
2024-01-27T07:55:22.815Z,14.23
2024-01-27T07:57:50.161Z,14.23
2024-01-27T08:00:17.606Z,14.30
2024-01-27T08:02:44.697Z,14.27
2024-01-27T08:05:11.959Z,14.29
2024-01-27T08:07:39.024Z,14.29
2024-01-27T08:10:08.064Z,14.42
2024-01-27T08:12:35.131Z,14.48
2024-01-27T08:15:02.819Z,14.89
2024-01-27T08:17:29.981Z,14.80
2024-01-27T08:19:57.028Z,14.74
2024-01-27T08:22:24.218Z,14.76
2024-01-27T08:24:51.123Z,14.77
2024-01-27T08:27:19.470Z,14.86
2024-01-27T08:29:46.400Z,14.90
2024-01-27T08:32:13.476Z,14.95
2024-01-27T08:34:40.533Z,15.09
2024-01-27T08:37:16.871Z,15.59
2024-01-27T08:39:43.847Z,16.05
2024-01-27T08:42:10.998Z,16.61
2024-01-27T08:44:39.795Z,16.66
2024-01-27T08:47:08.547Z,17.19
2024-01-27T08:49:36.410Z,17.32
2024-01-27T08:52:04.134Z,17.33
2024-01-27T08:54:31.263Z,17.20
2024-01-27T08:56:58.318Z,17.51
2024-01-27T08:59:25.380Z,17.35
2024-01-27T09:01:53.694Z,17.16
2024-01-27T09:04:20.669Z,17.22
2024-01-27T09:06:47.816Z,17.32
2024-01-27T09:09:14.967Z,17.21
2024-01-27T09:11:42.041Z,17.05
2024-01-27T09:14:09.041Z,16.95
2024-01-27T09:16:36.079Z,16.83
2024-01-27T09:19:04.540Z,16.70
2024-01-27T09:21:31.823Z,16.63
2024-01-27T09:24:00.143Z,16.58
2024-01-27T09:26:27.267Z,16.50
2024-01-27T09:28:54.241Z,16.57
2024-01-27T09:31:21.938Z,16.58
2024-01-27T09:33:50.116Z,16.47
2024-01-27T09:36:18.708Z,16.44
2024-01-27T09:38:45.798Z,16.39
2024-01-27T09:41:15.188Z,16.31
2024-01-27T09:43:44.679Z,16.26
2024-01-27T09:46:12.009Z,16.19
2024-01-27T09:48:39.282Z,16.24
2024-01-27T09:51:08.416Z,16.21
2024-01-27T09:53:37.257Z,16.18
2024-01-27T09:56:05.060Z,16.13
2024-01-27T09:58:32.961Z,15.94
2024-01-27T10:01:02.081Z,15.91
2024-01-27T10:03:30.726Z,16.08
2024-01-27T10:05:58.688Z,16.30
2024-01-27T10:08:25.999Z,16.27
2024-01-27T10:10:56.686Z,16.03
2024-01-27T10:13:23.839Z,16.09
2024-01-27T10:16:00.922Z,16.15
2024-01-27T10:18:28.103Z,16.26
2024-01-27T10:20:55.113Z,16.32
2024-01-27T10:23:22.058Z,16.39
2024-01-27T10:25:49.884Z,16.42
2024-01-27T10:28:18.888Z,16.46
2024-01-27T10:30:46.629Z,16.30
2024-01-27T10:33:13.775Z,16.43
2024-01-27T10:35:41.148Z,16.46
2024-01-27T10:38:08.152Z,16.25
2024-01-27T10:40:37.240Z,16.38
2024-01-27T10:43:06.100Z,16.38
2024-01-27T10:45:38.120Z,16.56
2024-01-27T10:48:07.107Z,16.54
2024-01-27T10:50:38.932Z,16.66
2024-01-27T10:53:16.122Z,16.74
2024-01-27T10:55:44.983Z,16.64
2024-01-27T10:58:14.114Z,16.88
2024-01-27T11:00:44.868Z,17.05
2024-01-27T11:03:13.237Z,17.24
2024-01-27T11:05:42.105Z,17.34
2024-01-27T11:08:11.602Z,17.48
2024-01-27T11:10:39.893Z,17.70
2024-01-27T11:13:09.837Z,17.71
2024-01-27T11:15:36.870Z,17.71
2024-01-27T11:18:06.380Z,17.81
2024-01-27T11:20:33.591Z,18.19
2024-01-27T11:23:10.266Z,18.13
2024-01-27T11:25:37.603Z,17.94
2024-01-27T11:28:12.674Z,17.64
2024-01-27T11:30:39.822Z,17.63
2024-01-27T11:33:08.697Z,17.56
2024-01-27T11:35:35.872Z,17.41
2024-01-27T11:38:03.089Z,17.62
2024-01-27T11:40:30.127Z,17.85
2024-01-27T11:42:57.870Z,18.01
2024-01-27T11:45:25.047Z,17.88
2024-01-27T11:47:52.450Z,17.97
2024-01-27T11:50:21.114Z,18.03
2024-01-27T11:52:48.803Z,17.97
2024-01-27T11:55:16.532Z,17.87
2024-01-27T11:57:43.739Z,17.93
2024-01-27T12:00:11.406Z,17.92
2024-01-27T12:02:38.682Z,17.92
2024-01-27T12:05:06.538Z,18.09
2024-01-27T12:07:35.624Z,18.29
2024-01-27T12:10:02.859Z,18.03
2024-01-27T12:12:30.324Z,17.98
2024-01-27T12:14:57.518Z,18.18
2024-01-27T12:17:24.770Z,17.93
2024-01-27T12:19:53.787Z,18.18
2024-01-27T12:22:25.335Z,18.14
2024-01-27T12:24:54.131Z,18.46
2024-01-27T12:27:23.262Z,18.26
2024-01-27T12:29:50.839Z,18.64
2024-01-27T12:32:19.370Z,18.64
2024-01-27T12:34:46.627Z,18.33
2024-01-27T12:37:14.027Z,17.90
2024-01-27T12:39:43.387Z,17.94
2024-01-27T12:42:11.984Z,17.90
2024-01-27T12:44:39.326Z,17.89
2024-01-27T12:47:06.979Z,17.77
2024-01-27T12:49:34.396Z,17.88
2024-01-27T12:52:01.614Z,17.82
2024-01-27T12:54:29.149Z,17.85
2024-01-27T12:56:57.360Z,17.78
2024-01-27T12:59:26.078Z,17.80
2024-01-27T13:01:53.024Z,17.87
2024-01-27T13:04:20.171Z,17.83
2024-01-27T13:06:47.788Z,18.05
2024-01-27T13:09:14.968Z,17.88
2024-01-27T13:11:42.037Z,17.77
2024-01-27T13:14:10.033Z,17.31
2024-01-27T13:16:38.542Z,17.50
2024-01-27T13:19:05.784Z,17.47
2024-01-27T13:21:32.889Z,17.53
2024-01-27T13:23:59.835Z,17.49
2024-01-27T13:26:28.003Z,17.45
2024-01-27T13:28:55.165Z,17.53
2024-01-27T13:31:22.274Z,17.70
2024-01-27T13:33:50.834Z,17.56
2024-01-27T13:36:18.497Z,17.53
2024-01-27T13:38:45.641Z,17.46
2024-01-27T13:41:12.689Z,17.49
2024-01-27T13:43:39.799Z,17.38
2024-01-27T13:46:06.954Z,17.45
2024-01-27T13:48:34.380Z,17.39
2024-01-27T13:51:03.070Z,17.45
2024-01-27T13:53:38.895Z,17.18
2024-01-27T13:56:13.825Z,17.26
2024-01-27T13:58:41.221Z,17.16
2024-01-27T14:01:08.214Z,17.02
2024-01-27T14:03:35.383Z,16.99
2024-01-27T14:06:04.407Z,16.95
2024-01-27T14:08:31.602Z,17.06
2024-01-27T14:10:59.476Z,17.08
2024-01-27T14:13:26.993Z,16.99
2024-01-27T14:15:54.121Z,16.90
2024-01-27T14:18:21.122Z,16.93
2024-01-27T14:20:48.269Z,16.85
2024-01-27T14:23:17.022Z,16.76
2024-01-27T14:25:47.335Z,16.69
2024-01-27T14:28:15.383Z,16.75
2024-01-27T14:30:42.884Z,16.68
2024-01-27T14:33:10.296Z,16.61
2024-01-27T14:35:37.665Z,16.56
2024-01-27T14:38:06.141Z,16.49
2024-01-27T14:40:34.544Z,16.50
2024-01-27T14:43:01.436Z,16.51
2024-01-27T14:45:28.500Z,16.55
2024-01-27T14:47:57.719Z,16.56
2024-01-27T14:50:26.141Z,16.55
2024-01-27T14:52:53.212Z,16.63
2024-01-27T14:55:20.281Z,16.65
2024-01-27T14:57:48.768Z,16.73
2024-01-27T15:00:16.964Z,16.73
2024-01-27T15:02:44.129Z,16.70
2024-01-27T15:05:11.172Z,16.62
2024-01-27T15:07:38.505Z,16.67
2024-01-27T15:10:06.585Z,16.61
2024-01-27T15:12:33.556Z,16.57
2024-01-27T15:15:02.060Z,16.55
2024-01-27T15:17:29.143Z,16.53
2024-01-27T15:19:56.452Z,16.57
2024-01-27T15:22:23.368Z,16.70
2024-01-27T15:24:50.303Z,16.73
2024-01-27T15:27:17.413Z,16.74
2024-01-27T15:29:44.506Z,16.70
2024-01-27T15:32:12.878Z,16.72
2024-01-27T15:34:39.919Z,16.66
2024-01-27T15:37:07.089Z,16.60
2024-01-27T15:39:34.307Z,16.63
2024-01-27T15:42:01.398Z,16.58
2024-01-27T15:44:28.392Z,16.50
2024-01-27T15:46:55.320Z,16.49
2024-01-27T15:49:23.813Z,16.48
2024-01-27T15:51:50.963Z,16.42
2024-01-27T15:54:18.231Z,16.63
2024-01-27T15:56:45.330Z,16.49
2024-01-27T15:59:12.260Z,16.38
2024-01-27T16:01:39.318Z,16.32
2024-01-27T16:04:06.390Z,16.25
2024-01-27T16:06:35.019Z,16.17
2024-01-27T16:09:02.092Z,16.12
2024-01-27T16:11:29.090Z,16.10
2024-01-27T16:13:56.277Z,16.07
2024-01-27T16:16:23.226Z,15.95
2024-01-27T16:18:50.885Z,16.14
2024-01-27T16:21:18.313Z,16.22
2024-01-27T16:23:46.782Z,16.84
2024-01-27T16:26:13.807Z,16.95
2024-01-27T16:28:40.803Z,17.52
2024-01-27T16:31:08.026Z,18.22
2024-01-27T16:33:35.280Z,18.20
2024-01-27T16:36:02.918Z,18.33
2024-01-27T16:38:30.066Z,17.86
2024-01-27T16:40:58.972Z,17.30
2024-01-27T16:43:26.146Z,16.89
2024-01-27T16:45:53.313Z,16.58
2024-01-27T16:48:22.364Z,16.27
2024-01-27T16:50:49.356Z,16.03
2024-01-27T16:53:16.357Z,15.83
2024-01-27T16:55:43.396Z,15.65
2024-01-27T16:58:11.886Z,15.60
2024-01-27T17:00:38.961Z,15.54
2024-01-27T17:03:06.162Z,15.42
2024-01-27T17:05:33.241Z,15.37
2024-01-27T17:08:00.226Z,15.29
2024-01-27T17:10:27.146Z,15.24
2024-01-27T17:12:54.050Z,15.22
2024-01-27T17:15:22.400Z,15.20
2024-01-27T17:17:49.406Z,15.20
2024-01-27T17:20:16.478Z,15.18
2024-01-27T17:22:43.532Z,15.17
2024-01-27T17:25:10.473Z,15.13
2024-01-27T17:27:37.795Z,15.17
2024-01-27T17:30:08.119Z,15.17
2024-01-27T17:32:36.633Z,15.22
2024-01-27T17:35:04.035Z,15.21
2024-01-27T17:37:31.221Z,15.19
2024-01-27T17:39:58.132Z,15.16
2024-01-27T17:42:25.279Z,15.18
2024-01-27T17:44:52.294Z,15.23
2024-01-27T17:47:19.230Z,15.22
2024-01-27T17:49:47.805Z,15.17
2024-01-27T17:52:14.803Z,15.20
2024-01-27T17:54:42.129Z,15.17
2024-01-27T17:57:09.243Z,15.12
2024-01-27T17:59:38.836Z,15.11
2024-01-27T18:02:06.544Z,15.09
2024-01-27T18:04:33.808Z,15.05
2024-01-27T18:07:02.351Z,15.06
2024-01-27T18:09:29.542Z,15.03
2024-01-27T18:11:56.559Z,14.94
2024-01-27T18:14:23.591Z,14.97
2024-01-27T18:16:50.582Z,14.94
2024-01-27T18:19:19.690Z,14.92
2024-01-27T18:21:48.786Z,14.91
2024-01-27T18:24:17.414Z,14.92
2024-01-27T18:26:44.647Z,14.91
2024-01-27T18:29:11.603Z,14.86
2024-01-27T18:31:38.739Z,14.88
2024-01-27T18:34:05.865Z,14.87
2024-01-27T18:36:33.129Z,14.81
2024-01-27T18:39:00.047Z,14.90
2024-01-27T18:41:28.357Z,14.91
2024-01-27T18:43:55.412Z,15.00
2024-01-27T18:46:22.386Z,15.14
2024-01-27T18:48:49.361Z,15.12
2024-01-27T18:51:16.800Z,15.17
2024-01-27T18:53:43.766Z,15.10
2024-01-27T18:56:10.814Z,15.11
2024-01-27T18:58:39.170Z,15.13
2024-01-27T19:01:06.260Z,15.06
2024-01-27T19:03:33.527Z,15.02
2024-01-27T19:06:00.597Z,15.03
2024-01-27T19:08:27.656Z,15.02
2024-01-27T19:10:54.568Z,15.04
2024-01-27T19:13:21.608Z,15.11
2024-01-27T19:15:49.942Z,15.10
2024-01-27T19:18:16.987Z,15.10
2024-01-27T19:20:44.138Z,15.09
2024-01-27T19:23:11.152Z,15.06
2024-01-27T19:25:38.039Z,15.04
2024-01-27T19:28:05.467Z,14.96
2024-01-27T19:30:32.779Z,14.94
2024-01-27T19:33:01.399Z,14.95
2024-01-27T19:35:28.536Z,14.86
2024-01-27T19:37:55.555Z,14.68
2024-01-27T19:40:22.536Z,14.58
2024-01-27T19:42:49.528Z,14.48
2024-01-27T19:45:16.606Z,14.42
2024-01-27T19:47:43.754Z,14.40
2024-01-27T19:50:12.572Z,14.34
2024-01-27T19:52:39.654Z,14.24
2024-01-27T19:55:07.335Z,14.22
2024-01-27T19:57:34.454Z,14.23
2024-01-27T20:00:01.436Z,14.25
2024-01-27T20:02:28.336Z,14.27
2024-01-27T20:04:55.409Z,14.27
2024-01-27T20:07:23.913Z,14.25
2024-01-27T20:09:50.924Z,14.24
2024-01-27T20:12:17.943Z,14.22
2024-01-27T20:14:44.935Z,14.10
2024-01-27T20:17:11.976Z,14.15
2024-01-27T20:19:39.091Z,14.06
2024-01-27T20:22:06.155Z,14.07
2024-01-27T20:24:34.620Z,14.05
2024-01-27T20:27:01.656Z,13.93
2024-01-27T20:29:28.649Z,13.83
2024-01-27T20:31:55.652Z,13.81
2024-01-27T20:34:22.922Z,13.88
2024-01-27T20:36:49.883Z,13.79
2024-01-27T20:39:16.964Z,13.79
2024-01-27T20:41:45.498Z,13.72
2024-01-27T20:44:12.660Z,13.75
2024-01-27T20:46:39.530Z,13.76
2024-01-27T20:49:06.861Z,13.72
2024-01-27T20:51:33.965Z,13.73
2024-01-27T20:54:00.949Z,13.79
2024-01-27T20:56:27.859Z,13.74
2024-01-27T20:58:56.239Z,13.68
2024-01-27T21:01:23.408Z,13.66
2024-01-27T21:03:50.598Z,13.64
2024-01-27T21:06:17.779Z,13.66
2024-01-27T21:08:44.730Z,13.67
2024-01-27T21:11:11.719Z,13.69
2024-01-27T21:13:38.777Z,13.74
2024-01-27T21:16:07.572Z,13.72
2024-01-27T21:18:34.667Z,13.74
2024-01-27T21:21:01.685Z,13.71
2024-01-27T21:23:28.612Z,13.74
2024-01-27T21:25:55.534Z,13.74
2024-01-27T21:28:22.528Z,13.75
2024-01-27T21:30:49.667Z,13.79
2024-01-27T21:33:18.223Z,13.76
2024-01-27T21:35:45.723Z,14.09
2024-01-27T21:38:13.220Z,14.04
2024-01-27T21:40:42.620Z,13.97
2024-01-27T21:43:10.328Z,13.94
2024-01-27T21:45:37.580Z,13.86
2024-01-27T21:48:05.631Z,13.83
2024-01-27T21:50:35.037Z,13.88
2024-01-27T21:53:03.498Z,13.81
2024-01-27T21:55:30.608Z,13.80
2024-01-27T21:57:57.487Z,13.82
2024-01-27T22:00:24.728Z,13.82
2024-01-27T22:02:51.865Z,13.87
2024-01-27T22:05:18.945Z,13.93
2024-01-27T22:07:47.340Z,13.87
2024-01-27T22:10:14.383Z,13.82
2024-01-27T22:12:41.817Z,13.88
2024-01-27T22:15:09.763Z,13.82
2024-01-27T22:17:36.719Z,13.86
2024-01-27T22:20:04.014Z,13.89
2024-01-27T22:22:30.925Z,13.85
2024-01-27T22:24:59.180Z,13.85
2024-01-27T22:27:26.165Z,13.80
2024-01-27T22:29:53.194Z,13.84
2024-01-27T22:32:20.186Z,13.92
2024-01-27T22:34:47.264Z,13.85
2024-01-27T22:37:14.311Z,13.84
2024-01-27T22:39:41.383Z,13.80
2024-01-27T22:42:09.864Z,13.91
2024-01-27T22:44:36.834Z,13.90
2024-01-27T22:47:04.099Z,13.97
2024-01-27T22:49:31.172Z,14.02
2024-01-27T22:51:58.158Z,14.07
2024-01-27T22:54:25.141Z,14.04
2024-01-27T22:56:52.213Z,14.04
2024-01-27T22:59:20.528Z,14.06
2024-01-27T23:01:47.500Z,14.09
2024-01-27T23:04:14.486Z,14.14
2024-01-27T23:06:41.607Z,14.24
2024-01-27T23:09:09.094Z,14.24
2024-01-27T23:11:36.426Z,14.18
2024-01-27T23:14:04.546Z,14.18
2024-01-27T23:16:33.148Z,14.19
2024-01-27T23:19:00.512Z,14.19
2024-01-27T23:21:27.576Z,14.19
2024-01-27T23:23:54.626Z,14.23
2024-01-27T23:26:21.640Z,14.26
2024-01-27T23:28:48.685Z,14.25
2024-01-27T23:31:15.642Z,14.31
2024-01-27T23:33:48.137Z,14.29
2024-01-27T23:36:18.004Z,14.28
2024-01-27T23:38:45.925Z,14.31
2024-01-27T23:41:12.940Z,14.31
2024-01-27T23:43:39.920Z,14.30
2024-01-27T23:46:06.920Z,14.31
2024-01-27T23:48:34.177Z,14.34
2024-01-27T23:51:02.585Z,14.38
2024-01-27T23:53:29.592Z,14.47
2024-01-27T23:55:56.603Z,14.48
2024-01-27T23:58:23.686Z,14.46
